sensor_id;sensor_type;location;lat;lon;timestamp;temperature;humidity
6810;DHT22;3443;48.812;9.112;2022-12-18T00:01:13;-7.80;99.90
6810;DHT22;3443;48.812;9.112;2022-12-18T00:03:39;-7.70;99.90
6810;DHT22;3443;48.812;9.112;2022-12-18T00:06:04;-7.80;99.90
6810;DHT22;3443;48.812;9.112;2022-12-18T00:08:30;-7.80;99.90
6810;DHT22;3443;48.812;9.112;2022-12-18T00:11:13;-7.80;99.90
6810;DHT22;3443;48.812;9.112;2022-12-18T00:13:39;-7.80;99.90
6810;DHT22;3443;48.812;9.112;2022-12-18T00:16:09;-7.70;99.90
6810;DHT22;3443;48.812;9.112;2022-12-18T00:18:35;-7.80;99.90
6810;DHT22;3443;48.812;9.112;2022-12-18T00:21:03;-7.80;99.90
6810;DHT22;3443;48.812;9.112;2022-12-18T00:23:29;-7.80;99.90
6810;DHT22;3443;48.812;9.112;2022-12-18T00:25:59;-7.80;99.90
6810;DHT22;3443;48.812;9.112;2022-12-18T00:28:24;-7.80;99.90
6810;DHT22;3443;48.812;9.112;2022-12-18T00:30:50;-7.80;99.90
6810;DHT22;3443;48.812;9.112;2022-12-18T00:33:17;-7.80;99.90
6810;DHT22;3443;48.812;9.112;2022-12-18T00:35:42;-7.90;99.90
6810;DHT22;3443;48.812;9.112;2022-12-18T00:38:08;-7.90;99.90
6810;DHT22;3443;48.812;9.112;2022-12-18T00:40:34;-7.90;99.90
6810;DHT22;3443;48.812;9.112;2022-12-18T00:42:59;-7.90;99.90
6810;DHT22;3443;48.812;9.112;2022-12-18T00:45:27;-7.80;99.90
6810;DHT22;3443;48.812;9.112;2022-12-18T00:47:54;-7.80;99.90
6810;DHT22;3443;48.812;9.112;2022-12-18T00:50:20;-7.80;99.90
6810;DHT22;3443;48.812;9.112;2022-12-18T00:52:46;-7.50;99.90
6810;DHT22;3443;48.812;9.112;2022-12-18T00:55:12;-8.00;99.90
6810;DHT22;3443;48.812;9.112;2022-12-18T00:57:38;-7.90;99.90
6810;DHT22;3443;48.812;9.112;2022-12-18T01:00:05;-8.00;99.90
6810;DHT22;3443;48.812;9.112;2022-12-18T01:02:31;-8.10;99.90
6810;DHT22;3443;48.812;9.112;2022-12-18T01:04:57;-7.80;99.90
6810;DHT22;3443;48.812;9.112;2022-12-18T01:07:22;-8.00;99.90
6810;DHT22;3443;48.812;9.112;2022-12-18T01:09:48;-8.00;99.90
6810;DHT22;3443;48.812;9.112;2022-12-18T01:12:14;-7.80;99.90
6810;DHT22;3443;48.812;9.112;2022-12-18T01:14:39;-7.90;99.90
6810;DHT22;3443;48.812;9.112;2022-12-18T01:17:05;-7.90;99.90
6810;DHT22;3443;48.812;9.112;2022-12-18T01:19:30;-8.10;99.90
6810;DHT22;3443;48.812;9.112;2022-12-18T01:21:56;-8.10;99.90
6810;DHT22;3443;48.812;9.112;2022-12-18T01:24:22;-8.00;99.90
6810;DHT22;3443;48.812;9.112;2022-12-18T01:26:47;-8.00;99.90
6810;DHT22;3443;48.812;9.112;2022-12-18T01:29:13;-7.90;99.90
6810;DHT22;3443;48.812;9.112;2022-12-18T01:31:38;-7.70;99.90
6810;DHT22;3443;48.812;9.112;2022-12-18T01:34:05;-7.80;99.90
6810;DHT22;3443;48.812;9.112;2022-12-18T01:36:33;-7.70;99.90
6810;DHT22;3443;48.812;9.112;2022-12-18T01:39:05;-7.60;99.90
6810;DHT22;3443;48.812;9.112;2022-12-18T01:41:32;-7.70;99.90
6810;DHT22;3443;48.812;9.112;2022-12-18T01:49:47;-7.60;99.90
6810;DHT22;3443;48.812;9.112;2022-12-18T01:52:14;-7.50;99.90
6810;DHT22;3443;48.812;9.112;2022-12-18T01:54:40;-7.50;99.90
6810;DHT22;3443;48.812;9.112;2022-12-18T01:57:05;-7.50;99.90
6810;DHT22;3443;48.812;9.112;2022-12-18T01:59:32;-7.50;99.90
6810;DHT22;3443;48.812;9.112;2022-12-18T02:01:59;-7.50;99.90
6810;DHT22;3443;48.812;9.112;2022-12-18T02:04:27;-7.50;99.90
6810;DHT22;3443;48.812;9.112;2022-12-18T02:12:48;-7.50;99.90
6810;DHT22;3443;48.812;9.112;2022-12-18T02:18:17;-7.50;99.90
6810;DHT22;3443;48.812;9.112;2022-12-18T02:20:48;-7.50;99.90
6810;DHT22;3443;48.812;9.112;2022-12-18T02:23:52;-7.50;99.90
6810;DHT22;3443;48.812;9.112;2022-12-18T02:26:33;-7.50;99.90
6810;DHT22;3443;48.812;9.112;2022-12-18T02:29:08;-7.50;99.90
6810;DHT22;3443;48.812;9.112;2022-12-18T02:32:14;-7.50;99.90
6810;DHT22;3443;48.812;9.112;2022-12-18T02:34:32;-7.50;99.90
6810;DHT22;3443;48.812;9.112;2022-12-18T02:37:00;-7.50;99.90
6810;DHT22;3443;48.812;9.112;2022-12-18T02:39:29;-7.50;99.90
6810;DHT22;3443;48.812;9.112;2022-12-18T02:41:57;-7.40;99.90
6810;DHT22;3443;48.812;9.112;2022-12-18T02:44:22;-7.50;99.90
6810;DHT22;3443;48.812;9.112;2022-12-18T02:46:52;-7.40;99.90
6810;DHT22;3443;48.812;9.112;2022-12-18T02:52:27;-7.40;99.90
6810;DHT22;3443;48.812;9.112;2022-12-18T02:54:56;-7.40;99.90
6810;DHT22;3443;48.812;9.112;2022-12-18T03:00:59;-7.40;99.90
6810;DHT22;3443;48.812;9.112;2022-12-18T03:03:36;-7.40;99.90
6810;DHT22;3443;48.812;9.112;2022-12-18T03:06:08;-7.50;99.90
6810;DHT22;3443;48.812;9.112;2022-12-18T03:08:45;-7.50;99.90
6810;DHT22;3443;48.812;9.112;2022-12-18T03:11:13;-7.50;99.90
6810;DHT22;3443;48.812;9.112;2022-12-18T03:13:48;-7.60;99.90
6810;DHT22;3443;48.812;9.112;2022-12-18T03:16:19;-7.60;99.90
6810;DHT22;3443;48.812;9.112;2022-12-18T03:19:24;-7.40;99.90
6810;DHT22;3443;48.812;9.112;2022-12-18T03:21:54;-7.60;99.90
6810;DHT22;3443;48.812;9.112;2022-12-18T03:24:21;-7.60;99.90
6810;DHT22;3443;48.812;9.112;2022-12-18T03:26:52;-7.60;99.90
6810;DHT22;3443;48.812;9.112;2022-12-18T03:29:30;-7.70;99.90
6810;DHT22;3443;48.812;9.112;2022-12-18T03:32:04;-7.70;99.90
6810;DHT22;3443;48.812;9.112;2022-12-18T03:34:34;-7.70;99.90
6810;DHT22;3443;48.812;9.112;2022-12-18T03:37:02;-7.90;99.90
6810;DHT22;3443;48.812;9.112;2022-12-18T03:39:28;-8.00;99.90
6810;DHT22;3443;48.812;9.112;2022-12-18T03:42:23;-8.00;99.90
6810;DHT22;3443;48.812;9.112;2022-12-18T03:50:15;-8.10;99.90
6810;DHT22;3443;48.812;9.112;2022-12-18T03:52:52;-8.00;99.90
6810;DHT22;3443;48.812;9.112;2022-12-18T03:55:20;-8.00;99.90
6810;DHT22;3443;48.812;9.112;2022-12-18T03:57:48;-8.00;99.90
6810;DHT22;3443;48.812;9.112;2022-12-18T04:00:16;-7.90;99.90
6810;DHT22;3443;48.812;9.112;2022-12-18T04:02:46;-8.00;99.90
6810;DHT22;3443;48.812;9.112;2022-12-18T04:05:13;-8.00;99.90
6810;DHT22;3443;48.812;9.112;2022-12-18T04:07:39;-8.00;99.90
6810;DHT22;3443;48.812;9.112;2022-12-18T04:10:07;-8.10;99.90
6810;DHT22;3443;48.812;9.112;2022-12-18T04:12:32;-8.10;99.90
6810;DHT22;3443;48.812;9.112;2022-12-18T04:14:58;-8.10;99.90
6810;DHT22;3443;48.812;9.112;2022-12-18T04:17:24;-8.20;99.90
6810;DHT22;3443;48.812;9.112;2022-12-18T04:19:50;-8.20;99.90
6810;DHT22;3443;48.812;9.112;2022-12-18T04:22:15;-7.90;99.90
6810;DHT22;3443;48.812;9.112;2022-12-18T04:24:41;-8.00;99.90
6810;DHT22;3443;48.812;9.112;2022-12-18T04:27:07;-8.00;99.90
6810;DHT22;3443;48.812;9.112;2022-12-18T04:29:32;-8.00;99.90
6810;DHT22;3443;48.812;9.112;2022-12-18T04:31:58;-8.00;99.90
6810;DHT22;3443;48.812;9.112;2022-12-18T04:34:23;-8.00;99.90
6810;DHT22;3443;48.812;9.112;2022-12-18T04:36:49;-8.00;99.90
6810;DHT22;3443;48.812;9.112;2022-12-18T04:39:18;-8.10;99.90
6810;DHT22;3443;48.812;9.112;2022-12-18T04:41:43;-8.10;99.90
6810;DHT22;3443;48.812;9.112;2022-12-18T04:44:09;-8.10;99.90
6810;DHT22;3443;48.812;9.112;2022-12-18T04:46:35;-8.10;99.90
6810;DHT22;3443;48.812;9.112;2022-12-18T04:49:01;-8.10;99.90
6810;DHT22;3443;48.812;9.112;2022-12-18T04:51:26;-8.00;99.90
6810;DHT22;3443;48.812;9.112;2022-12-18T04:53:52;-8.10;99.90
6810;DHT22;3443;48.812;9.112;2022-12-18T04:56:19;-8.10;99.90
6810;DHT22;3443;48.812;9.112;2022-12-18T04:58:44;-8.20;99.90
6810;DHT22;3443;48.812;9.112;2022-12-18T05:01:12;-8.50;99.90
6810;DHT22;3443;48.812;9.112;2022-12-18T05:03:38;-8.30;99.90
6810;DHT22;3443;48.812;9.112;2022-12-18T05:06:04;-8.20;99.90
6810;DHT22;3443;48.812;9.112;2022-12-18T05:08:30;-8.30;99.90
6810;DHT22;3443;48.812;9.112;2022-12-18T05:13:26;-8.20;99.90
6810;DHT22;3443;48.812;9.112;2022-12-18T05:15:52;-8.30;99.90
6810;DHT22;3443;48.812;9.112;2022-12-18T05:18:18;-8.30;99.90
6810;DHT22;3443;48.812;9.112;2022-12-18T05:20:43;-8.30;99.90
6810;DHT22;3443;48.812;9.112;2022-12-18T05:23:09;-8.30;99.90
6810;DHT22;3443;48.812;9.112;2022-12-18T05:25:34;-8.30;99.90
6810;DHT22;3443;48.812;9.112;2022-12-18T05:28:00;-8.40;99.90
6810;DHT22;3443;48.812;9.112;2022-12-18T05:30:25;-8.40;99.90
6810;DHT22;3443;48.812;9.112;2022-12-18T05:32:51;-8.40;99.90
6810;DHT22;3443;48.812;9.112;2022-12-18T05:35:17;-8.40;99.90
6810;DHT22;3443;48.812;9.112;2022-12-18T05:37:42;-8.40;99.90
6810;DHT22;3443;48.812;9.112;2022-12-18T05:40:08;-8.40;99.90
6810;DHT22;3443;48.812;9.112;2022-12-18T05:42:34;-8.40;99.90
6810;DHT22;3443;48.812;9.112;2022-12-18T05:44:59;-8.40;99.90
6810;DHT22;3443;48.812;9.112;2022-12-18T05:47:26;-8.40;99.90
6810;DHT22;3443;48.812;9.112;2022-12-18T05:49:52;-8.40;99.90
6810;DHT22;3443;48.812;9.112;2022-12-18T05:52:17;-8.30;99.90
6810;DHT22;3443;48.812;9.112;2022-12-18T05:54:43;-8.40;99.90
6810;DHT22;3443;48.812;9.112;2022-12-18T05:57:08;-8.40;99.90
6810;DHT22;3443;48.812;9.112;2022-12-18T05:59:34;-8.40;99.90
6810;DHT22;3443;48.812;9.112;2022-12-18T06:01:59;-8.50;99.90
6810;DHT22;3443;48.812;9.112;2022-12-18T06:04:27;-8.40;99.90
6810;DHT22;3443;48.812;9.112;2022-12-18T06:06:55;-8.40;99.90
6810;DHT22;3443;48.812;9.112;2022-12-18T06:09:21;-8.40;99.90
6810;DHT22;3443;48.812;9.112;2022-12-18T06:11:46;-8.30;99.90
6810;DHT22;3443;48.812;9.112;2022-12-18T06:14:12;-8.50;99.90
6810;DHT22;3443;48.812;9.112;2022-12-18T06:16:38;-8.40;99.90
6810;DHT22;3443;48.812;9.112;2022-12-18T06:19:05;-8.40;99.90
6810;DHT22;3443;48.812;9.112;2022-12-18T06:21:31;-8.40;99.90
6810;DHT22;3443;48.812;9.112;2022-12-18T06:23:57;-8.40;99.90
6810;DHT22;3443;48.812;9.112;2022-12-18T06:26:24;-8.40;99.90
6810;DHT22;3443;48.812;9.112;2022-12-18T06:28:49;-8.40;99.90
6810;DHT22;3443;48.812;9.112;2022-12-18T06:31:15;-8.30;99.90
6810;DHT22;3443;48.812;9.112;2022-12-18T06:33:42;-8.60;99.90
6810;DHT22;3443;48.812;9.112;2022-12-18T06:36:13;-8.60;99.90
6810;DHT22;3443;48.812;9.112;2022-12-18T06:38:41;-8.70;99.90
6810;DHT22;3443;48.812;9.112;2022-12-18T06:41:08;-8.60;99.90
6810;DHT22;3443;48.812;9.112;2022-12-18T06:43:33;-8.50;99.90
6810;DHT22;3443;48.812;9.112;2022-12-18T06:46:00;-8.70;99.90
6810;DHT22;3443;48.812;9.112;2022-12-18T06:48:26;-8.70;99.90
6810;DHT22;3443;48.812;9.112;2022-12-18T06:50:51;-8.60;99.90
6810;DHT22;3443;48.812;9.112;2022-12-18T06:53:17;-8.60;99.90
6810;DHT22;3443;48.812;9.112;2022-12-18T06:55:43;-8.60;99.90
6810;DHT22;3443;48.812;9.112;2022-12-18T06:58:08;-8.50;99.90
6810;DHT22;3443;48.812;9.112;2022-12-18T07:00:34;-8.70;99.90
6810;DHT22;3443;48.812;9.112;2022-12-18T07:02:59;-8.60;99.90
6810;DHT22;3443;48.812;9.112;2022-12-18T07:05:25;-8.60;99.90
6810;DHT22;3443;48.812;9.112;2022-12-18T07:07:50;-8.60;99.90
6810;DHT22;3443;48.812;9.112;2022-12-18T07:10:16;-8.50;99.90
6810;DHT22;3443;48.812;9.112;2022-12-18T07:12:42;-8.50;99.90
6810;DHT22;3443;48.812;9.112;2022-12-18T07:15:07;-8.50;99.90
6810;DHT22;3443;48.812;9.112;2022-12-18T07:17:33;-8.50;99.90
6810;DHT22;3443;48.812;9.112;2022-12-18T07:19:59;-8.40;99.90
6810;DHT22;3443;48.812;9.112;2022-12-18T07:22:27;-8.40;99.90
6810;DHT22;3443;48.812;9.112;2022-12-18T07:24:53;-8.40;99.90
6810;DHT22;3443;48.812;9.112;2022-12-18T07:27:18;-8.40;99.90
6810;DHT22;3443;48.812;9.112;2022-12-18T07:29:44;-8.40;99.90
6810;DHT22;3443;48.812;9.112;2022-12-18T07:32:10;-8.30;99.90
6810;DHT22;3443;48.812;9.112;2022-12-18T07:34:35;-8.10;99.90
6810;DHT22;3443;48.812;9.112;2022-12-18T07:37:01;-8.00;99.90
6810;DHT22;3443;48.812;9.112;2022-12-18T07:39:27;-8.00;99.90
6810;DHT22;3443;48.812;9.112;2022-12-18T07:41:52;-8.00;99.90
6810;DHT22;3443;48.812;9.112;2022-12-18T07:44:37;-8.00;99.90
6810;DHT22;3443;48.812;9.112;2022-12-18T07:47:03;-7.90;99.90
6810;DHT22;3443;48.812;9.112;2022-12-18T07:49:28;-7.90;99.90
6810;DHT22;3443;48.812;9.112;2022-12-18T07:51:55;-8.00;99.90
6810;DHT22;3443;48.812;9.112;2022-12-18T07:54:22;-8.00;99.90
6810;DHT22;3443;48.812;9.112;2022-12-18T07:56:48;-8.00;99.90
6810;DHT22;3443;48.812;9.112;2022-12-18T07:59:13;-8.00;99.90
6810;DHT22;3443;48.812;9.112;2022-12-18T08:01:39;-7.90;99.90
6810;DHT22;3443;48.812;9.112;2022-12-18T08:04:05;-7.90;99.90
6810;DHT22;3443;48.812;9.112;2022-12-18T08:06:30;-7.90;99.90
6810;DHT22;3443;48.812;9.112;2022-12-18T08:08:56;-7.80;99.90
6810;DHT22;3443;48.812;9.112;2022-12-18T08:11:23;-7.80;99.90
6810;DHT22;3443;48.812;9.112;2022-12-18T08:13:49;-7.70;99.90
6810;DHT22;3443;48.812;9.112;2022-12-18T08:16:15;-7.60;99.90
6810;DHT22;3443;48.812;9.112;2022-12-18T08:18:41;-7.60;99.90
6810;DHT22;3443;48.812;9.112;2022-12-18T08:21:14;-7.50;99.90
6810;DHT22;3443;48.812;9.112;2022-12-18T08:23:41;-7.50;99.90
6810;DHT22;3443;48.812;9.112;2022-12-18T08:26:07;-7.50;99.90
6810;DHT22;3443;48.812;9.112;2022-12-18T08:28:33;-7.40;99.90
6810;DHT22;3443;48.812;9.112;2022-12-18T08:31:00;-7.40;99.90
6810;DHT22;3443;48.812;9.112;2022-12-18T08:33:26;-7.40;99.90
6810;DHT22;3443;48.812;9.112;2022-12-18T08:35:52;-7.30;99.90
6810;DHT22;3443;48.812;9.112;2022-12-18T08:38:18;-7.30;99.90
6810;DHT22;3443;48.812;9.112;2022-12-18T08:40:43;-7.30;99.90
6810;DHT22;3443;48.812;9.112;2022-12-18T08:43:10;-7.30;99.90
6810;DHT22;3443;48.812;9.112;2022-12-18T08:45:55;-7.20;99.90
6810;DHT22;3443;48.812;9.112;2022-12-18T08:48:21;-7.10;99.90
6810;DHT22;3443;48.812;9.112;2022-12-18T08:50:57;-7.00;99.90
6810;DHT22;3443;48.812;9.112;2022-12-18T08:53:25;-7.00;99.90
6810;DHT22;3443;48.812;9.112;2022-12-18T08:55:50;-6.90;99.90
6810;DHT22;3443;48.812;9.112;2022-12-18T08:58:16;-6.80;99.90
6810;DHT22;3443;48.812;9.112;2022-12-18T09:00:41;-6.70;99.90
6810;DHT22;3443;48.812;9.112;2022-12-18T09:03:17;-6.70;99.90
6810;DHT22;3443;48.812;9.112;2022-12-18T09:05:45;-6.60;99.90
6810;DHT22;3443;48.812;9.112;2022-12-18T09:08:11;-6.60;99.90
6810;DHT22;3443;48.812;9.112;2022-12-18T09:10:47;-6.60;99.90
6810;DHT22;3443;48.812;9.112;2022-12-18T09:13:13;-6.50;99.90
6810;DHT22;3443;48.812;9.112;2022-12-18T09:15:51;-6.50;99.90
6810;DHT22;3443;48.812;9.112;2022-12-18T09:18:18;-6.50;99.90
6810;DHT22;3443;48.812;9.112;2022-12-18T09:20:45;-6.60;99.90
6810;DHT22;3443;48.812;9.112;2022-12-18T09:23:11;-6.50;99.90
6810;DHT22;3443;48.812;9.112;2022-12-18T09:25:37;-6.40;99.90
6810;DHT22;3443;48.812;9.112;2022-12-18T09:28:11;-6.40;99.90
6810;DHT22;3443;48.812;9.112;2022-12-18T09:30:39;-6.30;99.90
6810;DHT22;3443;48.812;9.112;2022-12-18T09:33:05;-6.30;99.90
6810;DHT22;3443;48.812;9.112;2022-12-18T09:35:30;-6.30;99.90
6810;DHT22;3443;48.812;9.112;2022-12-18T09:37:56;-6.30;99.90
6810;DHT22;3443;48.812;9.112;2022-12-18T09:40:25;-6.20;99.90
6810;DHT22;3443;48.812;9.112;2022-12-18T09:43:00;-6.20;99.90
6810;DHT22;3443;48.812;9.112;2022-12-18T09:45:38;-6.10;99.90
6810;DHT22;3443;48.812;9.112;2022-12-18T09:48:08;-6.10;99.90
6810;DHT22;3443;48.812;9.112;2022-12-18T09:50:37;-6.00;99.90
6810;DHT22;3443;48.812;9.112;2022-12-18T09:53:07;-5.90;99.90
6810;DHT22;3443;48.812;9.112;2022-12-18T09:55:40;-5.80;99.90
6810;DHT22;3443;48.812;9.112;2022-12-18T10:00:37;-5.80;99.90
6810;DHT22;3443;48.812;9.112;2022-12-18T10:03:09;-5.70;99.90
6810;DHT22;3443;48.812;9.112;2022-12-18T10:09:03;-5.60;99.90
6810;DHT22;3443;48.812;9.112;2022-12-18T10:14:23;-5.40;99.90
6810;DHT22;3443;48.812;9.112;2022-12-18T10:17:09;-5.40;99.90
6810;DHT22;3443;48.812;9.112;2022-12-18T10:19:52;-5.30;99.90
6810;DHT22;3443;48.812;9.112;2022-12-18T10:25:29;-5.10;99.90
6810;DHT22;3443;48.812;9.112;2022-12-18T10:28:10;-5.10;99.90
6810;DHT22;3443;48.812;9.112;2022-12-18T10:30:35;-5.00;99.90
6810;DHT22;3443;48.812;9.112;2022-12-18T10:33:04;-5.00;99.90
6810;DHT22;3443;48.812;9.112;2022-12-18T10:35:30;-4.80;99.90
6810;DHT22;3443;48.812;9.112;2022-12-18T10:40:57;-4.70;99.90
6810;DHT22;3443;48.812;9.112;2022-12-18T10:46:12;-4.60;99.90
6810;DHT22;3443;48.812;9.112;2022-12-18T10:53:59;-4.20;99.90
6810;DHT22;3443;48.812;9.112;2022-12-18T10:56:27;-4.10;99.90
6810;DHT22;3443;48.812;9.112;2022-12-18T11:04:17;-3.90;99.90
6810;DHT22;3443;48.812;9.112;2022-12-18T11:07:05;-3.80;99.90
6810;DHT22;3443;48.812;9.112;2022-12-18T11:09:36;-3.70;99.90
6810;DHT22;3443;48.812;9.112;2022-12-18T11:12:08;-3.60;99.90
6810;DHT22;3443;48.812;9.112;2022-12-18T11:14:46;-3.60;99.90
6810;DHT22;3443;48.812;9.112;2022-12-18T11:17:34;-3.60;99.90
6810;DHT22;3443;48.812;9.112;2022-12-18T11:20:21;-3.50;99.90
6810;DHT22;3443;48.812;9.112;2022-12-18T11:22:56;-3.40;99.90
6810;DHT22;3443;48.812;9.112;2022-12-18T11:25:22;-3.40;99.90
6810;DHT22;3443;48.812;9.112;2022-12-18T11:27:52;-3.50;99.90
6810;DHT22;3443;48.812;9.112;2022-12-18T11:30:29;-3.50;99.90
6810;DHT22;3443;48.812;9.112;2022-12-18T11:38:34;-3.50;99.90
6810;DHT22;3443;48.812;9.112;2022-12-18T11:43:59;-3.60;99.90
6810;DHT22;3443;48.812;9.112;2022-12-18T11:46:27;-3.50;99.90
6810;DHT22;3443;48.812;9.112;2022-12-18T11:49:06;-3.50;99.90
6810;DHT22;3443;48.812;9.112;2022-12-18T11:51:43;-3.40;99.90
6810;DHT22;3443;48.812;9.112;2022-12-18T11:54:13;-3.40;99.90
6810;DHT22;3443;48.812;9.112;2022-12-18T11:56:46;-3.20;99.90
6810;DHT22;3443;48.812;9.112;2022-12-18T11:59:28;-3.20;99.90
6810;DHT22;3443;48.812;9.112;2022-12-18T12:02:14;-3.20;99.90
6810;DHT22;3443;48.812;9.112;2022-12-18T12:07:46;-3.10;99.90
6810;DHT22;3443;48.812;9.112;2022-12-18T12:13:15;-3.10;99.90
6810;DHT22;3443;48.812;9.112;2022-12-18T12:20:49;-2.90;99.90
6810;DHT22;3443;48.812;9.112;2022-12-18T12:26:06;-2.90;99.90
6810;DHT22;3443;48.812;9.112;2022-12-18T12:28:57;-2.90;99.90
6810;DHT22;3443;48.812;9.112;2022-12-18T12:31:47;-2.80;99.90
6810;DHT22;3443;48.812;9.112;2022-12-18T12:34:29;-2.80;99.90
6810;DHT22;3443;48.812;9.112;2022-12-18T12:37:11;-2.80;99.90
6810;DHT22;3443;48.812;9.112;2022-12-18T12:39:44;-2.80;99.90
6810;DHT22;3443;48.812;9.112;2022-12-18T12:42:31;-2.70;99.90
6810;DHT22;3443;48.812;9.112;2022-12-18T12:46:08;-2.70;99.90
6810;DHT22;3443;48.812;9.112;2022-12-18T12:48:16;-2.50;99.90
6810;DHT22;3443;48.812;9.112;2022-12-18T12:50:42;-2.70;99.90
6810;DHT22;3443;48.812;9.112;2022-12-18T12:53:19;-2.70;99.90
6810;DHT22;3443;48.812;9.112;2022-12-18T12:55:46;-2.60;99.90
6810;DHT22;3443;48.812;9.112;2022-12-18T13:06:43;-2.50;99.90
6810;DHT22;3443;48.812;9.112;2022-12-18T13:09:11;-2.50;99.90
6810;DHT22;3443;48.812;9.112;2022-12-18T13:11:44;-2.50;99.90
6810;DHT22;3443;48.812;9.112;2022-12-18T13:14:36;-2.50;99.90
6810;DHT22;3443;48.812;9.112;2022-12-18T13:22:48;-2.40;99.90
6810;DHT22;3443;48.812;9.112;2022-12-18T13:25:37;-2.50;99.90
6810;DHT22;3443;48.812;9.112;2022-12-18T13:28:11;-2.40;99.90
6810;DHT22;3443;48.812;9.112;2022-12-18T13:48:36;-2.30;99.90
6810;DHT22;3443;48.812;9.112;2022-12-18T13:51:06;-2.40;99.90
6810;DHT22;3443;48.812;9.112;2022-12-18T13:53:52;-2.40;99.90
6810;DHT22;3443;48.812;9.112;2022-12-18T13:56:23;-2.40;99.90
6810;DHT22;3443;48.812;9.112;2022-12-18T14:01:57;-2.40;99.90
6810;DHT22;3443;48.812;9.112;2022-12-18T14:04:30;-2.50;99.90
6810;DHT22;3443;48.812;9.112;2022-12-18T14:07:20;-2.50;99.90
6810;DHT22;3443;48.812;9.112;2022-12-18T14:09:52;-2.50;99.90
6810;DHT22;3443;48.812;9.112;2022-12-18T14:12:21;-2.50;99.90
6810;DHT22;3443;48.812;9.112;2022-12-18T14:18:01;-2.60;99.90
6810;DHT22;3443;48.812;9.112;2022-12-18T14:20:31;-2.60;99.90
6810;DHT22;3443;48.812;9.112;2022-12-18T14:22:57;-2.60;99.90
6810;DHT22;3443;48.812;9.112;2022-12-18T14:25:24;-2.70;99.90
6810;DHT22;3443;48.812;9.112;2022-12-18T14:27:53;-2.70;99.90
6810;DHT22;3443;48.812;9.112;2022-12-18T14:30:30;-2.80;99.90
6810;DHT22;3443;48.812;9.112;2022-12-18T14:33:05;-2.80;99.90
6810;DHT22;3443;48.812;9.112;2022-12-18T14:35:33;-2.80;99.90
6810;DHT22;3443;48.812;9.112;2022-12-18T14:38:19;-2.90;99.90
6810;DHT22;3443;48.812;9.112;2022-12-18T14:40:45;-2.90;99.90
6810;DHT22;3443;48.812;9.112;2022-12-18T14:43:11;-3.00;99.90
6810;DHT22;3443;48.812;9.112;2022-12-18T14:48:22;-3.10;99.90
6810;DHT22;3443;48.812;9.112;2022-12-18T14:51:04;-3.10;99.90
6810;DHT22;3443;48.812;9.112;2022-12-18T14:56:04;-3.20;99.90
6810;DHT22;3443;48.812;9.112;2022-12-18T14:58:37;-3.30;99.90
6810;DHT22;3443;48.812;9.112;2022-12-18T15:01:03;-3.30;99.90
6810;DHT22;3443;48.812;9.112;2022-12-18T15:03:28;-3.40;99.90
6810;DHT22;3443;48.812;9.112;2022-12-18T15:05:54;-3.50;99.90
6810;DHT22;3443;48.812;9.112;2022-12-18T15:08:36;-3.50;99.90
6810;DHT22;3443;48.812;9.112;2022-12-18T15:11:03;-3.60;99.90
6810;DHT22;3443;48.812;9.112;2022-12-18T15:13:28;-3.60;99.90
6810;DHT22;3443;48.812;9.112;2022-12-18T15:15:57;-3.70;99.90
6810;DHT22;3443;48.812;9.112;2022-12-18T15:18:31;-3.70;99.90
6810;DHT22;3443;48.812;9.112;2022-12-18T15:21:08;-3.80;99.90
6810;DHT22;3443;48.812;9.112;2022-12-18T15:26:10;-3.80;99.90
6810;DHT22;3443;48.812;9.112;2022-12-18T15:28:43;-3.80;99.90
6810;DHT22;3443;48.812;9.112;2022-12-18T15:33:37;-3.90;99.90
6810;DHT22;3443;48.812;9.112;2022-12-18T15:36:11;-3.90;99.90
6810;DHT22;3443;48.812;9.112;2022-12-18T15:38:37;-3.90;99.90
6810;DHT22;3443;48.812;9.112;2022-12-18T15:41:13;-3.90;99.90
6810;DHT22;3443;48.812;9.112;2022-12-18T15:43:39;-3.90;99.90
6810;DHT22;3443;48.812;9.112;2022-12-18T15:48:50;-4.00;99.90
6810;DHT22;3443;48.812;9.112;2022-12-18T15:53:44;-4.00;99.90
6810;DHT22;3443;48.812;9.112;2022-12-18T15:56:11;-4.10;99.90
6810;DHT22;3443;48.812;9.112;2022-12-18T15:59:14;-4.10;99.90
6810;DHT22;3443;48.812;9.112;2022-12-18T16:01:41;-4.10;99.90
6810;DHT22;3443;48.812;9.112;2022-12-18T16:04:11;-4.10;99.90
6810;DHT22;3443;48.812;9.112;2022-12-18T16:06:37;-4.10;99.90
6810;DHT22;3443;48.812;9.112;2022-12-18T16:09:03;-4.10;99.90
6810;DHT22;3443;48.812;9.112;2022-12-18T16:11:30;-4.10;99.90
6810;DHT22;3443;48.812;9.112;2022-12-18T16:14:25;-4.00;99.90
6810;DHT22;3443;48.812;9.112;2022-12-18T16:16:57;-4.00;99.90
6810;DHT22;3443;48.812;9.112;2022-12-18T16:19:24;-4.00;99.90
6810;DHT22;3443;48.812;9.112;2022-12-18T16:21:52;-4.00;99.90
6810;DHT22;3443;48.812;9.112;2022-12-18T16:24:19;-4.00;99.90
6810;DHT22;3443;48.812;9.112;2022-12-18T16:26:47;-4.10;99.90
6810;DHT22;3443;48.812;9.112;2022-12-18T16:29:13;-4.00;99.90
6810;DHT22;3443;48.812;9.112;2022-12-18T16:31:39;-4.00;99.90
6810;DHT22;3443;48.812;9.112;2022-12-18T16:34:20;-4.00;99.90
6810;DHT22;3443;48.812;9.112;2022-12-18T16:36:49;-4.00;99.90
6810;DHT22;3443;48.812;9.112;2022-12-18T16:39:15;-4.00;99.90
6810;DHT22;3443;48.812;9.112;2022-12-18T16:41:41;-4.00;99.90
6810;DHT22;3443;48.812;9.112;2022-12-18T16:44:07;-4.00;99.90
6810;DHT22;3443;48.812;9.112;2022-12-18T16:46:32;-4.00;99.90
6810;DHT22;3443;48.812;9.112;2022-12-18T16:48:58;-3.90;99.90
6810;DHT22;3443;48.812;9.112;2022-12-18T16:51:25;-3.90;99.90
6810;DHT22;3443;48.812;9.112;2022-12-18T16:53:52;-3.90;99.90
6810;DHT22;3443;48.812;9.112;2022-12-18T16:56:18;-3.90;99.90
6810;DHT22;3443;48.812;9.112;2022-12-18T16:58:52;-3.90;99.90
6810;DHT22;3443;48.812;9.112;2022-12-18T17:01:18;-3.90;99.90
6810;DHT22;3443;48.812;9.112;2022-12-18T17:03:50;-3.90;99.90
6810;DHT22;3443;48.812;9.112;2022-12-18T17:06:16;-3.80;99.90
6810;DHT22;3443;48.812;9.112;2022-12-18T17:08:41;-3.80;99.90
6810;DHT22;3443;48.812;9.112;2022-12-18T17:11:07;-3.70;99.90
6810;DHT22;3443;48.812;9.112;2022-12-18T17:13:33;-3.70;99.90
6810;DHT22;3443;48.812;9.112;2022-12-18T17:16:06;-3.70;99.90
6810;DHT22;3443;48.812;9.112;2022-12-18T17:18:33;-3.60;99.90
6810;DHT22;3443;48.812;9.112;2022-12-18T17:21:03;-3.70;99.90
6810;DHT22;3443;48.812;9.112;2022-12-18T17:23:29;-3.60;99.90
6810;DHT22;3443;48.812;9.112;2022-12-18T17:25:58;-3.60;99.90
6810;DHT22;3443;48.812;9.112;2022-12-18T17:28:25;-3.60;99.90
6810;DHT22;3443;48.812;9.112;2022-12-18T17:30:52;-3.60;99.90
6810;DHT22;3443;48.812;9.112;2022-12-18T17:33:19;-3.60;99.90
6810;DHT22;3443;48.812;9.112;2022-12-18T17:35:44;-3.50;99.90
6810;DHT22;3443;48.812;9.112;2022-12-18T17:38:10;-3.50;99.90
6810;DHT22;3443;48.812;9.112;2022-12-18T17:40:36;-3.50;99.90
6810;DHT22;3443;48.812;9.112;2022-12-18T17:43:02;-3.50;99.90
6810;DHT22;3443;48.812;9.112;2022-12-18T17:45:27;-3.50;99.90
6810;DHT22;3443;48.812;9.112;2022-12-18T17:47:53;-3.50;99.90
6810;DHT22;3443;48.812;9.112;2022-12-18T17:50:19;-3.50;99.90
6810;DHT22;3443;48.812;9.112;2022-12-18T17:52:44;-3.50;99.90
6810;DHT22;3443;48.812;9.112;2022-12-18T17:55:10;-3.50;99.90
6810;DHT22;3443;48.812;9.112;2022-12-18T17:57:35;-3.50;99.90
6810;DHT22;3443;48.812;9.112;2022-12-18T18:00:03;-3.50;99.90
6810;DHT22;3443;48.812;9.112;2022-12-18T18:02:29;-3.50;99.90
6810;DHT22;3443;48.812;9.112;2022-12-18T18:04:54;-3.50;99.90
6810;DHT22;3443;48.812;9.112;2022-12-18T18:07:20;-3.50;99.90
6810;DHT22;3443;48.812;9.112;2022-12-18T18:09:45;-3.50;99.90
6810;DHT22;3443;48.812;9.112;2022-12-18T18:12:11;-3.50;99.90
6810;DHT22;3443;48.812;9.112;2022-12-18T18:14:56;-3.50;99.90
6810;DHT22;3443;48.812;9.112;2022-12-18T18:17:21;-3.50;99.90
6810;DHT22;3443;48.812;9.112;2022-12-18T18:19:47;-3.50;99.90
6810;DHT22;3443;48.812;9.112;2022-12-18T18:22:12;-3.50;99.90
6810;DHT22;3443;48.812;9.112;2022-12-18T18:24:38;-3.50;99.90
6810;DHT22;3443;48.812;9.112;2022-12-18T18:27:03;-3.50;99.90
6810;DHT22;3443;48.812;9.112;2022-12-18T18:29:29;-3.40;99.90